createdAt,value
2023-03-23T16:02:24.124Z,5.63
2023-03-23T16:07:25.913Z,4.60
2023-03-23T16:12:27.546Z,3.42
2023-03-23T16:17:29.209Z,3.90
2023-03-23T16:22:30.849Z,3.53
2023-03-23T16:27:32.609Z,3.80
2023-03-23T16:37:35.109Z,3.92
2023-03-23T16:42:36.895Z,3.88
2023-03-23T16:47:40.334Z,4.22
2023-03-23T16:52:46.146Z,4.30
2023-03-23T16:57:48.404Z,4.68
2023-03-23T17:02:52.606Z,4.28
2023-03-23T17:07:57.696Z,4.20
2023-03-23T17:12:59.420Z,4.55
2023-03-23T17:18:01.867Z,6.10
2023-03-23T17:23:04.485Z,5.30
2023-03-23T17:28:07.137Z,5.05
2023-03-23T17:33:09.553Z,4.38
2023-03-23T17:38:11.398Z,3.83
2023-03-23T17:43:13.278Z,4.25
2023-03-23T17:48:15.131Z,4.15
2023-03-23T17:53:18.492Z,3.85
2023-03-23T17:58:20.272Z,3.90
2023-03-23T18:03:23.584Z,3.58
2023-03-23T18:08:26.165Z,3.67
2023-03-23T18:13:31.606Z,3.95
2023-03-23T18:18:33.702Z,4.15
2023-03-23T18:23:46.109Z,4.13
2023-03-23T18:28:55.812Z,4.93
2023-03-23T18:33:57.478Z,4.57
2023-03-23T18:38:59.228Z,4.47
2023-03-23T18:44:00.918Z,4.10
2023-03-23T18:49:02.596Z,3.90
2023-03-23T18:54:04.541Z,4.28
2023-03-23T18:59:06.549Z,4.20
2023-03-23T19:04:08.165Z,4.10
2023-03-23T19:09:09.812Z,4.32
2023-03-23T19:14:11.765Z,4.20
2023-03-23T19:19:14.264Z,4.13
2023-03-23T19:24:15.987Z,4.65
2023-03-23T19:29:26.698Z,4.30
2023-03-23T19:34:30.096Z,4.47
2023-03-23T19:39:33.064Z,4.47
2023-03-23T19:44:34.892Z,4.28
2023-03-23T19:49:36.660Z,4.32
2023-03-23T19:54:39.145Z,4.10
2023-03-23T19:59:41.219Z,4.40
2023-03-23T20:04:43.691Z,3.70
2023-03-23T20:09:48.421Z,4.18
2023-03-23T20:14:50.758Z,3.58
2023-03-23T20:19:52.562Z,4.40
2023-03-23T20:24:54.175Z,4.07
2023-03-23T20:29:56.079Z,3.80
2023-03-23T20:34:57.703Z,3.80
2023-03-23T20:39:59.318Z,3.65
2023-03-23T20:45:01.904Z,3.53
2023-03-23T20:50:05.306Z,3.47
2023-03-23T20:55:07.926Z,3.95
2023-03-23T21:00:16.143Z,3.80
2023-03-23T21:05:17.852Z,4.00
2023-03-23T21:10:19.620Z,4.00
2023-03-23T21:15:21.593Z,4.40
2023-03-23T21:20:24.137Z,5.13
2023-03-23T21:25:34.080Z,4.43
2023-03-23T21:30:37.359Z,5.07
2023-03-23T21:35:41.615Z,4.57
2023-03-23T21:40:44.550Z,5.20
2023-03-23T21:45:46.348Z,4.57
2023-03-23T21:50:48.586Z,4.60
2023-03-23T21:55:51.784Z,4.53
2023-03-23T22:00:54.578Z,5.00
2023-03-23T22:05:56.337Z,4.53
2023-03-23T22:11:03.614Z,4.63
2023-03-23T22:16:09.165Z,4.70
2023-03-23T22:21:12.935Z,4.47
2023-03-23T22:26:16.651Z,4.32
2023-03-23T22:31:23.825Z,4.47
2023-03-23T22:36:29.369Z,5.20
2023-03-23T22:41:37.970Z,4.60
2023-03-23T22:46:40.729Z,5.20
2023-03-23T22:51:42.548Z,4.57
2023-03-23T22:56:44.256Z,4.78
2023-03-23T23:01:46.953Z,4.68
2023-03-23T23:06:48.739Z,4.82
2023-03-23T23:11:50.582Z,4.85
2023-03-23T23:16:52.714Z,5.18
2023-03-23T23:21:55.714Z,4.82
2023-03-23T23:26:58.572Z,5.15
2023-03-23T23:32:02.148Z,4.90
2023-03-23T23:37:03.986Z,5.38
2023-03-23T23:42:05.847Z,5.00
2023-03-23T23:47:07.626Z,4.60
2023-03-23T23:52:09.426Z,4.93
2023-03-23T23:57:11.183Z,4.45
